createdAt,value
2023-04-13T00:00:21.154Z,7.79
2023-04-13T00:01:21.099Z,7.81
2023-04-13T00:02:21.180Z,7.75
2023-04-13T00:03:21.228Z,7.82
2023-04-13T00:04:21.050Z,7.99
2023-04-13T00:05:21.133Z,7.85
2023-04-13T00:06:21.030Z,7.84
2023-04-13T00:07:21.010Z,8.03
2023-04-13T00:08:20.979Z,8.17
2023-04-13T00:09:20.971Z,8.25
2023-04-13T00:10:20.968Z,8.20
2023-04-13T00:11:20.961Z,8.14
2023-04-13T00:12:20.932Z,8.33
2023-04-13T00:13:20.943Z,8.28
2023-04-13T00:14:20.912Z,8.32
2023-04-13T00:15:20.914Z,8.33
2023-04-13T00:16:20.906Z,8.53
2023-04-13T00:17:20.881Z,8.51
2023-04-13T00:18:20.933Z,8.48
2023-04-13T00:19:20.866Z,8.58
2023-04-13T00:20:20.852Z,8.63
2023-04-13T00:21:20.884Z,8.65
2023-04-13T00:22:20.827Z,8.62
2023-04-13T00:23:20.825Z,8.57
2023-04-13T00:24:20.811Z,8.60
2023-04-13T00:25:20.813Z,8.72
2023-04-13T00:26:20.777Z,8.65
2023-04-13T00:27:20.784Z,8.79
2023-04-13T00:28:20.759Z,8.60
2023-04-13T00:29:20.748Z,8.78
2023-04-13T00:30:20.750Z,8.63
2023-04-13T00:31:20.772Z,8.78
2023-04-13T00:32:20.709Z,8.75
2023-04-13T00:33:20.800Z,8.86
2023-04-13T00:34:20.708Z,8.83
2023-04-13T00:35:20.696Z,8.75
2023-04-13T00:36:20.665Z,8.81
2023-04-13T00:37:20.710Z,8.75
2023-04-13T00:38:20.660Z,8.79
2023-04-13T00:39:20.658Z,8.81
2023-04-13T00:40:20.669Z,8.81
2023-04-13T00:41:20.620Z,8.81
2023-04-13T00:42:20.614Z,8.79
2023-04-13T00:43:20.624Z,8.88
2023-04-13T00:44:20.611Z,8.83
2023-04-13T00:45:20.591Z,8.86
2023-04-13T00:46:20.624Z,8.78
2023-04-13T00:47:20.600Z,8.86
2023-04-13T00:48:20.534Z,8.93
2023-04-13T00:49:20.524Z,8.81
2023-04-13T00:50:20.529Z,8.86
2023-04-13T00:51:20.499Z,8.86
2023-04-13T00:52:20.509Z,8.94
2023-04-13T00:53:20.505Z,8.88
2023-04-13T00:54:20.472Z,8.93
2023-04-13T00:55:20.460Z,8.91
2023-04-13T00:56:20.468Z,8.91
2023-04-13T00:57:20.463Z,8.94
2023-04-13T00:58:20.423Z,8.97
2023-04-13T00:59:20.426Z,8.97
2023-04-13T01:00:20.397Z,8.84
2023-04-13T01:01:20.460Z,8.99
2023-04-13T01:02:20.543Z,8.90
2023-04-13T01:03:20.448Z,8.93
2023-04-13T01:04:20.456Z,8.96
2023-04-13T01:05:20.372Z,8.88
2023-04-13T01:06:20.327Z,8.94
2023-04-13T01:07:20.336Z,8.88
2023-04-13T01:08:20.316Z,8.93
2023-04-13T01:09:20.336Z,8.97
2023-04-13T01:10:20.299Z,8.93
2023-04-13T01:11:20.281Z,8.90
2023-04-13T01:12:20.260Z,8.88
2023-04-13T01:13:20.270Z,8.87
2023-04-13T01:14:20.252Z,8.86
2023-04-13T01:15:20.247Z,8.91
2023-04-13T01:16:20.279Z,8.78
2023-04-13T01:17:41.259Z,8.84
2023-04-13T01:18:20.197Z,8.73
2023-04-13T01:19:47.765Z,8.87
2023-04-13T01:20:20.182Z,8.84
2023-04-13T01:21:20.161Z,8.88
2023-04-13T01:22:20.301Z,8.79
2023-04-13T01:23:20.137Z,8.76
2023-04-13T01:24:20.130Z,8.75
2023-04-13T01:25:20.185Z,8.90
2023-04-13T01:26:20.178Z,8.93
2023-04-13T01:27:20.120Z,8.87
2023-04-13T01:28:20.088Z,8.86
2023-04-13T01:29:20.113Z,8.69
2023-04-13T01:30:20.078Z,8.72
2023-04-13T01:31:20.087Z,8.75
2023-04-13T01:32:20.089Z,8.72
2023-04-13T01:33:20.027Z,8.75
2023-04-13T01:34:20.021Z,8.76
2023-04-13T01:35:20.013Z,8.65
2023-04-13T01:36:20.000Z,8.73
2023-04-13T01:37:20.017Z,8.69
2023-04-13T01:38:19.976Z,8.73
2023-04-13T01:39:19.964Z,8.75
2023-04-13T01:40:19.954Z,8.72
2023-04-13T01:41:19.958Z,8.76
2023-04-13T01:42:19.962Z,8.63
2023-04-13T01:43:19.923Z,8.76
2023-04-13T01:44:19.905Z,8.75
2023-04-13T01:45:19.890Z,8.69
2023-04-13T01:46:20.871Z,8.68
2023-04-13T01:47:19.931Z,8.66
2023-04-13T01:48:19.876Z,8.83
2023-04-13T01:49:19.856Z,8.63
2023-04-13T01:50:19.844Z,8.79
2023-04-13T01:51:19.826Z,8.69
2023-04-13T01:52:19.844Z,8.73
2023-04-13T01:53:19.802Z,8.68
2023-04-13T01:54:19.801Z,8.69
2023-04-13T01:55:19.776Z,8.58
2023-04-13T01:56:19.770Z,8.60
2023-04-13T01:57:19.826Z,8.58
2023-04-13T01:58:19.792Z,8.73
2023-04-13T01:59:19.732Z,8.76
2023-04-13T02:00:19.733Z,8.62
2023-04-13T02:01:19.903Z,8.75
2023-04-13T02:02:19.914Z,8.72
2023-04-13T02:03:19.752Z,8.68
2023-04-13T02:04:19.756Z,8.83
2023-04-13T02:05:19.664Z,8.66
2023-04-13T02:06:19.663Z,8.69
2023-04-13T02:07:19.660Z,8.81
2023-04-13T02:08:19.667Z,8.79
2023-04-13T02:09:19.618Z,8.73
2023-04-13T02:10:19.610Z,8.68
2023-04-13T02:11:19.665Z,8.79
2023-04-13T02:12:19.603Z,8.76
2023-04-13T02:13:19.642Z,8.81
2023-04-13T02:14:19.592Z,8.83
2023-04-13T02:15:19.565Z,8.66
2023-04-13T02:16:19.620Z,8.83
2023-04-13T02:17:19.718Z,8.79
2023-04-13T02:18:19.564Z,8.86
2023-04-13T02:19:19.521Z,8.87
2023-04-13T02:20:19.502Z,8.88
2023-04-13T02:21:19.487Z,8.84
2023-04-13T02:22:19.502Z,8.96
2023-04-13T02:23:19.463Z,8.81
2023-04-13T02:24:19.474Z,8.78
2023-04-13T02:25:19.453Z,8.84
2023-04-13T02:26:19.436Z,8.81
2023-04-13T02:27:19.432Z,8.90
2023-04-13T02:28:19.440Z,8.76
2023-04-13T02:29:19.432Z,8.75
2023-04-13T02:30:19.387Z,8.84
2023-04-13T02:31:19.385Z,8.87
2023-04-13T02:32:19.416Z,8.73
2023-04-13T02:33:19.362Z,8.78
2023-04-13T02:34:19.344Z,8.86
2023-04-13T02:35:19.328Z,8.81
2023-04-13T02:36:19.423Z,8.76
2023-04-13T02:37:19.332Z,8.86
2023-04-13T02:38:19.311Z,8.78
2023-04-13T02:39:19.296Z,8.83
2023-04-13T02:40:19.287Z,8.71
2023-04-13T02:41:19.273Z,8.90
2023-04-13T02:42:19.270Z,8.84
2023-04-13T02:43:19.242Z,8.79
2023-04-13T02:44:19.232Z,8.84
2023-04-13T02:45:19.244Z,8.90
2023-04-13T02:46:19.287Z,8.90
2023-04-13T02:47:19.227Z,8.84
2023-04-13T02:48:19.249Z,8.79
2023-04-13T02:49:19.167Z,8.83
2023-04-13T02:50:19.163Z,8.78
2023-04-13T02:51:19.148Z,8.76
2023-04-13T02:52:19.178Z,8.79
2023-04-13T02:53:19.122Z,8.94
2023-04-13T02:54:19.119Z,8.86
2023-04-13T02:55:19.122Z,8.86
2023-04-13T02:56:19.123Z,8.88
2023-04-13T02:57:19.094Z,8.91
2023-04-13T02:58:19.102Z,8.90
2023-04-13T02:59:19.157Z,8.83
2023-04-13T03:00:19.057Z,8.88
2023-04-13T03:01:19.143Z,8.79
2023-04-13T03:02:19.090Z,8.79
2023-04-13T03:03:19.084Z,8.73
2023-04-13T03:04:19.038Z,8.88
2023-04-13T03:05:19.002Z,8.78
2023-04-13T03:06:19.000Z,8.84
2023-04-13T03:07:18.976Z,8.81
2023-04-13T03:08:19.014Z,8.78
2023-04-13T03:09:18.943Z,8.76
2023-04-13T03:10:18.971Z,8.87
2023-04-13T03:11:18.949Z,8.81
2023-04-13T03:12:18.915Z,8.83
2023-04-13T03:13:18.928Z,8.87
2023-04-13T03:14:18.901Z,8.84
2023-04-13T03:15:18.874Z,8.84
2023-04-13T03:16:18.944Z,8.91
2023-04-13T03:17:19.876Z,8.90
2023-04-13T03:18:18.892Z,8.88
2023-04-13T03:19:18.843Z,8.84
2023-04-13T03:20:18.830Z,8.83
2023-04-13T03:21:18.814Z,8.83
2023-04-13T03:22:18.802Z,8.88
2023-04-13T03:23:18.817Z,8.84
2023-04-13T03:24:18.809Z,8.87
2023-04-13T03:25:18.794Z,8.87
2023-04-13T03:26:18.780Z,8.81
2023-04-13T03:27:18.816Z,8.78
2023-04-13T03:28:18.870Z,8.81
2023-04-13T03:29:18.731Z,8.78
2023-04-13T03:30:18.826Z,8.81
2023-04-13T03:31:18.740Z,8.76
2023-04-13T03:32:18.760Z,8.86
2023-04-13T03:33:18.738Z,8.78
2023-04-13T03:34:18.688Z,8.86
2023-04-13T03:35:18.652Z,8.75
2023-04-13T03:36:18.679Z,8.84
2023-04-13T03:37:18.644Z,8.84
2023-04-13T03:38:18.640Z,8.84
2023-04-13T03:39:18.609Z,8.79
2023-04-13T03:40:18.613Z,8.81
2023-04-13T03:41:18.602Z,8.76
2023-04-13T03:42:18.610Z,8.96
2023-04-13T03:43:18.589Z,8.90
2023-04-13T03:44:18.561Z,8.81
2023-04-13T03:45:18.540Z,8.79
2023-04-13T03:46:18.586Z,8.86
2023-04-13T03:47:18.581Z,8.79
2023-04-13T03:48:18.524Z,8.93
2023-04-13T03:49:18.524Z,8.79
2023-04-13T03:50:18.488Z,8.84
2023-04-13T03:51:18.505Z,8.84
2023-04-13T03:52:18.478Z,8.90
2023-04-13T03:53:18.472Z,8.84
2023-04-13T03:54:18.456Z,8.88
2023-04-13T03:55:18.451Z,8.93
2023-04-13T03:56:18.434Z,8.94
2023-04-13T03:57:18.426Z,8.86
2023-04-13T03:58:18.414Z,8.91
2023-04-13T03:59:18.386Z,8.79
2023-04-13T04:00:18.374Z,8.90
2023-04-13T04:01:18.391Z,9.02
2023-04-13T04:02:18.504Z,8.83
2023-04-13T04:03:18.426Z,8.99
2023-04-13T04:04:18.403Z,9.04
2023-04-13T04:05:18.476Z,8.91
2023-04-13T04:06:18.336Z,8.88
2023-04-13T04:07:18.311Z,8.96
2023-04-13T04:08:18.296Z,8.97
2023-04-13T04:09:18.271Z,8.96
2023-04-13T04:10:18.260Z,8.93
2023-04-13T04:11:18.266Z,8.86
2023-04-13T04:12:18.272Z,8.94
2023-04-13T04:13:18.261Z,8.90
2023-04-13T04:14:18.226Z,8.97
2023-04-13T04:15:18.237Z,8.84
2023-04-13T04:16:18.252Z,8.88
2023-04-13T04:17:18.191Z,8.88
2023-04-13T04:18:18.201Z,8.97
2023-04-13T04:19:18.154Z,8.88
2023-04-13T04:20:18.188Z,8.88
2023-04-13T04:21:18.155Z,8.90
2023-04-13T04:22:18.137Z,9.02
2023-04-13T04:23:19.765Z,9.02
2023-04-13T04:24:18.117Z,8.97
2023-04-13T04:25:18.085Z,8.97
2023-04-13T04:26:18.110Z,8.96
2023-04-13T04:27:18.063Z,8.93
2023-04-13T04:28:18.249Z,8.96
2023-04-13T04:29:18.043Z,8.96
2023-04-13T04:30:18.033Z,8.99
2023-04-13T04:31:18.095Z,8.99
2023-04-13T04:32:18.011Z,8.96
2023-04-13T04:33:18.035Z,8.96
2023-04-13T04:34:18.004Z,9.01
2023-04-13T04:35:17.970Z,9.05
2023-04-13T04:36:17.981Z,9.05
2023-04-13T04:37:20.974Z,9.02
2023-04-13T04:38:17.960Z,8.97
2023-04-13T04:39:17.952Z,9.06
2023-04-13T04:40:17.942Z,9.13
2023-04-13T04:41:17.924Z,9.02
2023-04-13T04:42:17.934Z,9.02
2023-04-13T04:43:17.921Z,9.09
2023-04-13T04:44:17.898Z,9.04
2023-04-13T04:45:17.896Z,9.12
2023-04-13T04:46:17.893Z,9.13
2023-04-13T04:47:17.841Z,9.04
2023-04-13T04:48:17.865Z,9.16
2023-04-13T04:49:17.843Z,9.05
2023-04-13T04:50:17.862Z,9.06
2023-04-13T04:51:17.806Z,9.15
2023-04-13T04:52:17.801Z,9.10
2023-04-13T04:53:17.821Z,9.06
2023-04-13T04:54:17.788Z,9.06
2023-04-13T04:55:17.764Z,8.97
2023-04-13T04:56:17.751Z,9.02
2023-04-13T04:57:17.740Z,9.04
2023-04-13T04:58:17.736Z,9.06
2023-04-13T04:59:17.735Z,9.12
2023-04-13T05:00:17.714Z,8.97
2023-04-13T05:01:17.725Z,9.12
2023-04-13T05:02:17.882Z,9.05
2023-04-13T05:03:17.711Z,8.97
2023-04-13T05:04:17.681Z,9.15
2023-04-13T05:05:17.691Z,8.94
2023-04-13T05:06:17.651Z,9.06
2023-04-13T05:07:17.659Z,9.02
2023-04-13T05:08:17.610Z,9.12
2023-04-13T05:09:17.632Z,9.05
2023-04-13T05:10:17.610Z,9.04
2023-04-13T05:11:17.589Z,9.02
2023-04-13T05:12:17.581Z,9.02
2023-04-13T05:13:17.581Z,9.10
2023-04-13T05:14:17.573Z,8.94
2023-04-13T05:15:17.549Z,9.04
2023-04-13T05:16:17.610Z,8.94
2023-04-13T05:17:17.531Z,9.04
2023-04-13T05:18:17.510Z,9.04
2023-04-13T05:19:17.877Z,9.01
2023-04-13T05:20:17.491Z,9.04
2023-04-13T05:21:17.476Z,9.04
2023-04-13T05:22:17.490Z,8.94
2023-04-13T05:23:17.457Z,9.04
2023-04-13T05:24:17.451Z,9.01
2023-04-13T05:25:17.452Z,9.05
2023-04-13T05:26:17.423Z,9.01
2023-04-13T05:27:17.466Z,9.06
2023-04-13T05:28:17.395Z,8.99
2023-04-13T05:29:17.393Z,9.01
2023-04-13T05:30:17.362Z,8.99
2023-04-13T05:31:17.373Z,9.09
2023-04-13T05:32:17.378Z,9.04
2023-04-13T05:33:17.357Z,8.97
2023-04-13T05:34:17.359Z,8.90
2023-04-13T05:35:17.341Z,9.02
2023-04-13T05:36:17.313Z,9.04
2023-04-13T05:37:17.567Z,9.02
2023-04-13T05:38:17.272Z,8.93
2023-04-13T05:39:17.285Z,9.05
2023-04-13T05:40:17.264Z,9.02
2023-04-13T05:41:17.261Z,9.05
2023-04-13T05:42:17.237Z,8.99
2023-04-13T05:43:17.233Z,9.09
2023-04-13T05:44:17.241Z,9.12
2023-04-13T05:45:17.440Z,9.02
2023-04-13T05:46:17.222Z,9.02
2023-04-13T05:47:17.194Z,9.01
2023-04-13T05:48:17.164Z,9.15
2023-04-13T05:49:17.170Z,8.96
2023-04-13T05:50:17.132Z,8.97
2023-04-13T05:51:17.127Z,9.04
2023-04-13T05:52:17.126Z,9.01
2023-04-13T05:53:17.106Z,9.01
2023-04-13T05:54:17.139Z,8.87
2023-04-13T05:55:17.094Z,8.97
2023-04-13T05:56:17.086Z,9.01
2023-04-13T05:57:17.097Z,8.96
2023-04-13T05:58:17.051Z,8.88
2023-04-13T05:59:17.039Z,8.88
2023-04-13T06:00:17.035Z,8.94
2023-04-13T06:01:17.045Z,8.88
2023-04-13T06:02:17.152Z,8.90
2023-04-13T06:03:17.243Z,8.90
2023-04-13T06:04:17.255Z,8.81
2023-04-13T06:05:17.027Z,8.90
2023-04-13T06:06:16.968Z,8.90
2023-04-13T06:07:16.950Z,8.79
2023-04-13T06:08:17.070Z,8.83
2023-04-13T06:09:16.958Z,8.86
2023-04-13T06:10:16.965Z,8.91
2023-04-13T06:11:16.923Z,8.83
2023-04-13T06:12:16.907Z,8.84
2023-04-13T06:13:16.986Z,8.90
2023-04-13T06:14:16.889Z,8.93
2023-04-13T06:15:16.872Z,8.79
2023-04-13T06:16:16.934Z,8.79
2023-04-13T06:17:16.976Z,8.94
2023-04-13T06:18:16.846Z,8.93
2023-04-13T06:19:16.833Z,8.87
2023-04-13T06:20:16.807Z,8.91
2023-04-13T06:21:16.800Z,8.93
2023-04-13T06:22:16.900Z,8.97
2023-04-13T06:23:16.778Z,8.91
2023-04-13T06:24:16.748Z,8.84
2023-04-13T06:25:16.851Z,8.84
2023-04-13T06:26:16.738Z,8.84
2023-04-13T06:27:16.735Z,8.93
2023-04-13T06:28:16.725Z,8.91
2023-04-13T06:29:16.750Z,8.96
2023-04-13T06:30:16.847Z,8.87
2023-04-13T06:31:16.801Z,8.88
2023-04-13T06:32:16.723Z,8.88
2023-04-13T06:33:16.676Z,8.93
2023-04-13T06:34:16.650Z,8.91
2023-04-13T06:35:16.637Z,8.84
2023-04-13T06:36:16.612Z,8.96
2023-04-13T06:37:16.616Z,8.83
2023-04-13T06:38:16.604Z,8.90
2023-04-13T06:39:16.605Z,8.76
2023-04-13T06:40:16.582Z,8.87
2023-04-13T06:41:16.564Z,8.73
2023-04-13T06:42:16.802Z,8.75
2023-04-13T06:43:29.206Z,8.81
2023-04-13T06:44:18.864Z,8.84
2023-04-13T06:45:16.561Z,8.87
2023-04-13T06:46:19.099Z,8.99
2023-04-13T06:47:16.598Z,8.97
2023-04-13T06:48:16.481Z,8.96
2023-04-13T06:49:16.557Z,8.87
2023-04-13T06:50:16.459Z,8.96
2023-04-13T06:51:16.463Z,8.99
2023-04-13T06:52:16.445Z,8.87
2023-04-13T06:53:16.432Z,8.97
2023-04-13T06:54:16.479Z,9.06
2023-04-13T06:55:16.423Z,9.09
2023-04-13T06:56:16.393Z,9.15
2023-04-13T06:57:16.398Z,9.18
2023-04-13T06:58:16.394Z,9.23
2023-04-13T06:59:16.445Z,9.38
2023-04-13T07:00:28.774Z,9.32
2023-04-13T07:01:17.459Z,9.48
2023-04-13T07:02:16.402Z,9.53
2023-04-13T07:03:16.488Z,9.67
2023-04-13T07:04:16.412Z,9.93
2023-04-13T07:05:16.367Z,10.06
2023-04-13T07:06:16.291Z,10.14
2023-04-13T07:07:16.282Z,10.30
2023-04-13T07:08:16.254Z,10.39
2023-04-13T07:09:16.298Z,10.58
2023-04-13T07:10:16.238Z,10.53
2023-04-13T07:11:16.241Z,10.76
2023-04-13T07:12:16.224Z,10.86
2023-04-13T07:13:16.229Z,11.01
2023-04-13T07:14:16.219Z,10.96
2023-04-13T07:15:16.186Z,10.95
2023-04-13T07:16:16.306Z,10.92
2023-04-13T07:17:16.337Z,10.99
2023-04-13T07:18:16.143Z,10.96
2023-04-13T07:19:16.212Z,10.95
2023-04-13T07:20:16.144Z,11.02
2023-04-13T07:21:16.138Z,11.06
2023-04-13T07:22:16.114Z,10.96
2023-04-13T07:23:16.109Z,10.80
2023-04-13T07:24:16.114Z,10.89
2023-04-13T07:25:16.580Z,10.84
2023-04-13T07:26:16.062Z,10.98
2023-04-13T07:27:16.049Z,10.91
2023-04-13T07:28:16.033Z,10.84
2023-04-13T07:29:16.055Z,10.77
2023-04-13T07:30:16.025Z,10.52
2023-04-13T07:31:16.016Z,10.55
2023-04-13T07:32:15.997Z,10.58
2023-04-13T07:33:16.070Z,10.37
2023-04-13T07:34:15.991Z,10.39
2023-04-13T07:35:15.969Z,10.36
2023-04-13T07:36:15.945Z,10.52
2023-04-13T07:37:15.952Z,10.60
2023-04-13T07:38:15.943Z,10.51
2023-04-13T07:39:15.980Z,10.56
2023-04-13T07:40:15.899Z,10.53
2023-04-13T07:41:15.887Z,10.46
2023-04-13T07:42:15.875Z,10.44
2023-04-13T07:43:15.881Z,10.40
2023-04-13T07:44:15.882Z,10.47
2023-04-13T07:45:15.920Z,10.52
2023-04-13T07:46:15.914Z,10.55
2023-04-13T07:47:15.827Z,10.58
2023-04-13T07:48:15.818Z,10.53
2023-04-13T07:49:15.879Z,10.60
2023-04-13T07:50:15.784Z,10.65
2023-04-13T07:51:15.774Z,10.62
2023-04-13T07:52:15.760Z,10.66
2023-04-13T07:53:15.758Z,10.80
2023-04-13T07:54:16.810Z,10.70
2023-04-13T07:55:15.734Z,10.65
2023-04-13T07:56:15.738Z,10.52
2023-04-13T07:57:15.713Z,10.52
2023-04-13T07:58:15.706Z,10.51
2023-04-13T07:59:15.715Z,10.51
2023-04-13T08:00:15.667Z,10.56
2023-04-13T08:01:15.676Z,10.44
2023-04-13T08:02:15.688Z,10.43
2023-04-13T08:03:15.784Z,10.51
2023-04-13T08:04:15.898Z,10.56
2023-04-13T08:05:15.908Z,10.51
2023-04-13T08:06:15.619Z,10.44
2023-04-13T08:07:15.628Z,10.34
2023-04-13T08:08:15.597Z,10.34
2023-04-13T08:09:15.597Z,10.39
2023-04-13T08:10:15.569Z,10.42
2023-04-13T08:11:15.552Z,10.36
2023-04-13T08:12:15.553Z,10.46
2023-04-13T08:13:15.545Z,10.39
2023-04-13T08:14:15.544Z,10.32
2023-04-13T08:15:15.518Z,10.32
2023-04-13T08:16:15.532Z,10.22
2023-04-13T08:17:15.525Z,10.22
2023-04-13T08:18:15.480Z,10.14
2023-04-13T08:19:15.477Z,10.17
2023-04-13T08:20:15.471Z,10.14
2023-04-13T08:21:15.463Z,10.30
2023-04-13T08:22:15.444Z,10.34
2023-04-13T08:23:15.429Z,10.39
2023-04-13T08:24:15.425Z,10.33
2023-04-13T08:25:15.418Z,10.24
2023-04-13T08:26:15.408Z,10.43
2023-04-13T08:27:15.389Z,10.28
2023-04-13T08:28:15.376Z,10.36
2023-04-13T08:29:15.476Z,10.30
2023-04-13T08:30:15.366Z,10.24
2023-04-13T08:31:15.330Z,10.25
2023-04-13T08:32:15.529Z,10.28
2023-04-13T08:33:15.319Z,10.42
2023-04-13T08:34:15.315Z,10.42
2023-04-13T08:35:15.326Z,10.43
2023-04-13T08:36:15.269Z,10.43
2023-04-13T08:37:15.310Z,10.55
2023-04-13T08:38:15.255Z,10.56
2023-04-13T08:39:15.250Z,10.52
2023-04-13T08:40:15.257Z,10.51
2023-04-13T08:41:15.233Z,10.59
2023-04-13T08:42:15.218Z,10.51
2023-04-13T08:43:15.213Z,10.63
2023-04-13T08:44:15.196Z,10.55
2023-04-13T08:45:15.186Z,10.55
2023-04-13T08:46:15.179Z,10.53
2023-04-13T08:47:15.163Z,10.65
2023-04-13T08:48:15.194Z,10.60
2023-04-13T08:49:15.139Z,10.76
2023-04-13T08:50:15.137Z,10.71
2023-04-13T08:51:15.105Z,10.71
2023-04-13T08:52:16.886Z,10.60
2023-04-13T08:53:15.609Z,10.60
2023-04-13T08:54:15.077Z,10.60
2023-04-13T08:55:15.090Z,10.65
2023-04-13T08:56:15.061Z,10.70
2023-04-13T08:57:15.039Z,10.63
2023-04-13T08:58:15.038Z,10.63
2023-04-13T08:59:15.061Z,10.66
2023-04-13T09:00:15.028Z,10.63
2023-04-13T09:01:15.047Z,10.71
2023-04-13T09:02:15.055Z,10.55
2023-04-13T09:03:15.093Z,10.52
2023-04-13T09:04:15.206Z,10.55
2023-04-13T09:05:15.130Z,10.60
2023-04-13T09:06:14.967Z,10.63
2023-04-13T09:07:14.920Z,10.58
2023-04-13T09:08:14.919Z,10.59
2023-04-13T09:09:14.994Z,10.47
2023-04-13T09:10:14.917Z,10.58
2023-04-13T09:11:14.878Z,10.60
2023-04-13T09:12:14.874Z,10.74
2023-04-13T09:13:14.862Z,10.74
2023-04-13T09:14:14.893Z,10.71
2023-04-13T09:15:14.849Z,10.81
2023-04-13T09:16:14.814Z,10.81
2023-04-13T09:17:14.855Z,10.80
2023-04-13T09:18:14.937Z,10.89
2023-04-13T09:19:14.788Z,11.06
2023-04-13T09:20:14.822Z,10.96
2023-04-13T09:21:14.785Z,10.95
2023-04-13T09:22:14.751Z,10.95
2023-04-13T09:23:14.794Z,11.03
2023-04-13T09:24:14.740Z,11.01
2023-04-13T09:25:14.835Z,10.86
2023-04-13T09:26:14.773Z,10.91
2023-04-13T09:27:14.699Z,10.98
2023-04-13T09:28:14.683Z,10.86
2023-04-13T09:29:14.770Z,10.94
2023-04-13T09:30:14.693Z,10.98
2023-04-13T09:31:14.699Z,10.89
2023-04-13T09:32:14.650Z,10.96
2023-04-13T09:33:14.632Z,11.10
2023-04-13T09:34:14.618Z,11.02
2023-04-13T09:35:14.633Z,11.19
2023-04-13T09:36:14.593Z,11.13
2023-04-13T09:37:14.601Z,11.21
2023-04-13T09:38:14.587Z,11.29
2023-04-13T09:39:14.590Z,11.27
2023-04-13T09:40:14.627Z,11.27
2023-04-13T09:41:14.615Z,11.34
2023-04-13T09:42:14.552Z,11.44
2023-04-13T09:43:14.538Z,11.50
2023-04-13T09:44:14.514Z,11.46
2023-04-13T09:45:14.545Z,11.38
2023-04-13T09:46:14.562Z,11.54
2023-04-13T09:47:14.483Z,11.49
2023-04-13T09:48:14.465Z,11.43
2023-04-13T09:49:14.476Z,11.70
2023-04-13T09:50:14.508Z,11.64
2023-04-13T09:51:14.441Z,11.72
2023-04-13T09:52:14.433Z,11.53
2023-04-13T09:53:14.425Z,11.67
2023-04-13T09:54:14.411Z,11.56
2023-04-13T09:55:14.419Z,11.68
2023-04-13T09:56:14.394Z,11.67
2023-04-13T09:57:14.403Z,11.68
2023-04-13T09:58:14.365Z,11.75
2023-04-13T09:59:14.360Z,11.77
2023-04-13T10:00:14.377Z,11.89
2023-04-13T10:01:14.357Z,11.78
2023-04-13T10:02:14.402Z,11.83
2023-04-13T10:03:14.408Z,11.77
2023-04-13T10:04:14.326Z,11.74
2023-04-13T10:05:14.386Z,11.64
2023-04-13T10:06:14.263Z,11.68
2023-04-13T10:07:14.250Z,11.39
2023-04-13T10:08:16.424Z,11.47
2023-04-13T10:09:14.224Z,11.25
2023-04-13T10:10:14.289Z,11.21
2023-04-13T10:11:14.220Z,11.11
2023-04-13T10:12:14.209Z,10.94
2023-04-13T10:13:21.580Z,10.73
2023-04-13T10:14:15.177Z,10.78
2023-04-13T10:15:14.178Z,10.71
2023-04-13T10:16:14.175Z,10.71
2023-04-13T10:17:14.166Z,10.70
2023-04-13T10:18:14.216Z,10.59
2023-04-13T10:19:14.111Z,10.51
2023-04-13T10:20:14.134Z,10.55
2023-04-13T10:21:14.103Z,10.60
2023-04-13T10:22:14.084Z,10.59
2023-04-13T10:23:14.071Z,10.63
2023-04-13T10:24:14.078Z,10.68
2023-04-13T10:25:25.229Z,10.96
2023-04-13T10:26:15.056Z,11.20
2023-04-13T10:27:14.037Z,11.35
2023-04-13T10:28:14.026Z,11.57
2023-04-13T10:29:14.051Z,11.86
2023-04-13T10:30:14.013Z,11.87
2023-04-13T10:31:14.062Z,12.06
2023-04-13T10:32:13.979Z,12.31
2023-04-13T10:33:13.974Z,12.63
2023-04-13T10:34:14.049Z,12.99
2023-04-13T10:35:13.947Z,13.33
2023-04-13T10:36:13.949Z,13.65
2023-04-13T10:37:13.936Z,13.92
2023-04-13T10:38:13.915Z,14.04
2023-04-13T10:39:13.888Z,14.04
2023-04-13T10:40:13.891Z,14.06
2023-04-13T10:41:13.886Z,13.99
2023-04-13T10:42:15.410Z,14.17
2023-04-13T10:43:13.857Z,14.38
2023-04-13T10:44:13.845Z,14.53
2023-04-13T10:45:13.838Z,14.78
2023-04-13T10:46:14.050Z,15.06
2023-04-13T10:47:13.903Z,15.21
2023-04-13T10:48:13.839Z,15.33
2023-04-13T10:49:13.777Z,15.31
2023-04-13T10:50:13.778Z,15.38
2023-04-13T10:51:13.755Z,15.46
2023-04-13T10:52:13.773Z,15.33
2023-04-13T10:53:13.745Z,15.11
2023-04-13T10:54:13.735Z,14.98
2023-04-13T10:55:13.728Z,14.67
2023-04-13T10:56:13.713Z,14.34
2023-04-13T10:57:13.741Z,14.07
2023-04-13T10:58:13.700Z,13.94
2023-04-13T10:59:13.668Z,13.71
2023-04-13T11:00:13.656Z,13.59
2023-04-13T11:01:13.742Z,13.52
2023-04-13T11:02:13.747Z,13.51
2023-04-13T11:03:13.816Z,13.55
2023-04-13T11:04:16.897Z,13.65
2023-04-13T11:05:13.611Z,13.71
2023-04-13T11:06:13.858Z,13.87
2023-04-13T11:07:13.580Z,13.98
2023-04-13T11:08:13.580Z,14.19
2023-04-13T11:09:16.598Z,14.43
2023-04-13T11:10:13.567Z,14.60
2023-04-13T11:11:15.158Z,14.83
2023-04-13T11:12:13.557Z,14.91
2023-04-13T11:13:13.521Z,15.05
2023-04-13T11:14:13.512Z,15.02
2023-04-13T11:15:13.741Z,15.06
2023-04-13T11:16:13.532Z,14.88
2023-04-13T11:17:13.728Z,14.67
2023-04-13T11:18:13.509Z,14.67
2023-04-13T11:19:13.464Z,14.52
2023-04-13T11:20:13.507Z,14.52
2023-04-13T11:21:13.437Z,14.49
2023-04-13T11:22:13.575Z,14.44
2023-04-13T11:23:13.412Z,14.35
2023-04-13T11:24:13.386Z,14.17
2023-04-13T11:25:13.376Z,14.20
2023-04-13T11:26:13.380Z,14.21
2023-04-13T11:27:13.367Z,14.20
2023-04-13T11:28:13.385Z,14.10
2023-04-13T11:29:13.331Z,14.04
2023-04-13T11:30:13.403Z,14.02
2023-04-13T11:31:13.332Z,13.84
2023-04-13T11:32:13.409Z,13.83
2023-04-13T11:33:13.476Z,13.62
2023-04-13T11:34:13.298Z,13.47
2023-04-13T11:35:13.272Z,13.46
2023-04-13T11:36:13.298Z,13.27
2023-04-13T11:37:13.255Z,13.17
2023-04-13T11:38:13.237Z,13.15
2023-04-13T11:39:13.214Z,13.11
2023-04-13T11:40:13.253Z,13.18
2023-04-13T11:41:17.019Z,13.11
2023-04-13T11:42:13.191Z,13.12
2023-04-13T11:43:13.187Z,13.11
2023-04-13T11:44:13.163Z,13.09
2023-04-13T11:45:13.161Z,12.99
2023-04-13T11:46:13.216Z,12.97
2023-04-13T11:47:13.167Z,13.07
2023-04-13T11:48:13.137Z,13.11
2023-04-13T11:49:13.158Z,13.17
2023-04-13T11:50:15.325Z,13.17
2023-04-13T11:51:13.106Z,13.37
2023-04-13T11:52:13.086Z,13.47
2023-04-13T11:53:13.070Z,13.56
2023-04-13T11:54:13.049Z,13.55
2023-04-13T11:55:22.498Z,13.59
2023-04-13T11:56:14.072Z,13.70
2023-04-13T11:57:13.061Z,13.77
2023-04-13T11:58:13.021Z,13.84
2023-04-13T11:59:13.022Z,13.96
2023-04-13T12:00:12.997Z,14.10
2023-04-13T12:01:15.381Z,14.19
2023-04-13T12:02:21.778Z,14.16
2023-04-13T12:03:34.430Z,14.27
2023-04-13T12:04:16.328Z,14.25
2023-04-13T12:05:13.173Z,14.35
2023-04-13T12:06:13.537Z,14.24
2023-04-13T12:07:14.067Z,14.13
2023-04-13T12:08:13.418Z,14.19
2023-04-13T12:09:15.744Z,14.09
2023-04-13T12:11:38.974Z,14.29
2023-04-13T12:14:17.797Z,14.68
2023-04-13T12:15:29.969Z,14.72
2023-04-13T12:17:37.559Z,14.99
2023-04-13T12:18:15.831Z,15.12
2023-04-13T12:19:14.050Z,15.23
2023-04-13T12:20:12.846Z,15.31
2023-04-13T12:21:13.457Z,15.39
2023-04-13T12:22:14.311Z,15.28
2023-04-13T12:23:21.928Z,15.31
2023-04-13T12:24:15.395Z,15.43
2023-04-13T12:25:14.453Z,15.31
2023-04-13T12:28:12.685Z,15.21
2023-04-13T12:29:12.663Z,15.31
2023-04-13T12:30:12.683Z,15.41
2023-04-13T12:31:12.754Z,15.39
2023-04-13T12:32:12.621Z,15.42
2023-04-13T12:33:12.617Z,15.43
2023-04-13T12:34:12.597Z,15.64
2023-04-13T12:35:12.601Z,15.82
2023-04-13T12:36:12.613Z,15.94
2023-04-13T12:37:12.592Z,16.16
2023-04-13T12:38:12.564Z,16.20
2023-04-13T12:39:12.569Z,16.12
2023-04-13T12:40:12.554Z,16.22
2023-04-13T12:41:12.593Z,16.35
2023-04-13T12:42:12.532Z,16.59
2023-04-13T12:43:12.534Z,16.77
2023-04-13T12:44:12.490Z,17.04
2023-04-13T12:45:12.488Z,17.17
2023-04-13T12:46:12.468Z,17.35
2023-04-13T12:47:12.604Z,17.41
2023-04-13T12:48:12.530Z,17.32
2023-04-13T12:49:12.444Z,17.36
2023-04-13T12:50:12.436Z,17.11
2023-04-13T12:51:12.433Z,17.20
2023-04-13T12:52:12.410Z,17.03
2023-04-13T12:53:12.437Z,16.89
2023-04-13T12:54:12.379Z,16.89
2023-04-13T12:55:12.379Z,16.75
2023-04-13T12:56:12.385Z,16.71
2023-04-13T12:57:12.337Z,16.70
2023-04-13T12:58:12.368Z,16.86
2023-04-13T12:59:12.316Z,16.80
2023-04-13T13:00:12.332Z,16.85
2023-04-13T13:01:12.371Z,17.20
2023-04-13T13:02:12.382Z,17.25
2023-04-13T13:03:14.570Z,17.32
2023-04-13T13:04:12.338Z,17.48
2023-04-13T13:05:12.256Z,17.50
2023-04-13T13:06:12.249Z,17.33
2023-04-13T13:07:12.255Z,17.32
2023-04-13T13:08:12.231Z,17.41
2023-04-13T13:09:12.281Z,17.55
2023-04-13T13:10:28.435Z,17.57
2023-04-13T13:11:13.182Z,17.76
2023-04-13T13:12:12.182Z,17.91